Time;durP1;ratioP1;P1;durP2;ratioP2;P2;SDS_P1;SDS_P2;PMS_P1;PMS_P2;Temp;Humidity;BMP_temperature;BMP_pressure;BME280_temperature;BME280_humidity;BME280_pressure;Samples;Min_cycle;Max_cycle;Signal;HPM_P1;HPM_P2
2021/10/25 00:01:09;;;;;;;6.63;6.10;;;10.90;97.10;;;;;;5051655;28;20546;-65
2021/10/25 00:03:35;;;;;;;6.60;6.10;;;10.80;96.90;;;;;;5052191;28;20184;-65
2021/10/25 00:06:01;;;;;;;6.53;6.10;;;10.80;97.10;;;;;;5051530;28;20430;-70
2021/10/25 00:08:27;;;;;;;6.50;5.90;;;10.70;97.00;;;;;;5051983;28;20669;-65
2021/10/25 00:10:53;;;;;;;6.70;6.10;;;10.70;97.00;;;;;;5052294;28;20404;-65
2021/10/25 00:13:19;;;;;;;7.33;6.63;;;10.60;97.00;;;;;;5051341;28;20213;-65
2021/10/25 00:15:45;;;;;;;5.97;5.60;;;10.60;97.30;;;;;;5052082;28;20434;-64
2021/10/25 00:18:11;;;;;;;6.90;6.30;;;10.60;97.70;;;;;;5051507;28;20491;-65
2021/10/25 00:20:37;;;;;;;7.50;6.80;;;10.50;97.70;;;;;;5051915;28;20457;-65
2021/10/25 00:23:03;;;;;;;6.77;6.27;;;10.60;97.90;;;;;;5051391;28;20258;-66
2021/10/25 00:25:30;;;;;;;6.57;6.07;;;10.50;97.80;;;;;;5052023;28;20456;-65
2021/10/25 00:27:56;;;;;;;7.30;6.70;;;10.50;97.80;;;;;;5052158;28;20397;-65
2021/10/25 00:30:21;;;;;;;7.70;7.10;;;10.40;97.90;;;;;;5050026;28;20437;-65
2021/10/25 00:32:47;;;;;;;7.20;6.70;;;10.50;98.20;;;;;;5052036;28;20197;-65
2021/10/25 00:35:13;;;;;;;8.03;7.43;;;10.50;98.30;;;;;;5052961;28;20180;-65
2021/10/25 00:37:39;;;;;;;8.03;7.33;;;10.50;98.20;;;;;;5056277;28;20255;-65
2021/10/25 00:40:06;;;;;;;7.57;6.97;;;10.50;98.30;;;;;;5055298;28;20174;-65
2021/10/25 00:42:33;;;;;;;6.97;6.40;;;10.50;98.40;;;;;;5055900;28;20547;-65
2021/10/25 00:44:59;;;;;;;7.33;6.73;;;10.50;98.40;;;;;;5055376;28;20470;-65
2021/10/25 00:47:25;;;;;;;6.77;6.30;;;10.50;98.50;;;;;;5055717;28;20416;-65
2021/10/25 00:49:51;;;;;;;6.77;6.13;;;10.40;98.40;;;;;;5055926;28;20421;-65
2021/10/25 00:52:19;;;;;;;6.50;5.90;;;10.50;98.40;;;;;;5055099;28;20418;-65
2021/10/25 00:54:45;;;;;;;7.30;6.70;;;10.40;98.20;;;;;;5055367;28;20423;-65
2021/10/25 00:57:11;;;;;;;7.17;6.60;;;10.40;98.00;;;;;;5055060;28;20509;-65
2021/10/25 00:59:37;;;;;;;6.93;6.37;;;10.30;97.80;;;;;;5054581;28;20406;-65
2021/10/25 01:02:04;;;;;;;7.40;6.07;;;10.30;98.20;;;;;;5055278;28;20410;-69
2021/10/25 01:04:31;;;;;;;7.33;6.67;;;10.30;98.20;;;;;;5055336;28;20439;-65
2021/10/25 01:06:58;;;;;;;6.70;6.10;;;10.20;97.80;;;;;;5055373;28;20415;-65
2021/10/25 01:09:25;;;;;;;6.83;6.20;;;10.20;98.00;;;;;;5054592;28;20597;-65
2021/10/25 01:11:52;;;;;;;7.30;6.60;;;10.20;98.20;;;;;;5054376;28;20411;-65
2021/10/25 01:14:18;;;;;;;5.87;5.47;;;10.10;98.00;;;;;;5054740;28;20482;-65
2021/10/25 01:16:44;;;;;;;5.67;5.30;;;10.10;98.10;;;;;;5055181;28;20428;-65
2021/10/25 01:19:10;;;;;;;6.60;6.00;;;10.10;98.10;;;;;;5054580;28;20408;-65
2021/10/25 01:21:36;;;;;;;5.50;5.10;;;10.10;98.20;;;;;;5055521;28;20414;-65
2021/10/25 01:24:03;;;;;;;5.90;5.40;;;10.00;98.30;;;;;;5055248;28;20439;-70
2021/10/25 01:26:29;;;;;;;6.30;5.90;;;10.00;98.10;;;;;;5054893;28;20406;-65
2021/10/25 01:28:54;;;;;;;9.60;5.77;;;10.00;98.10;;;;;;5054753;28;20428;-65
2021/10/25 01:31:22;;;;;;;6.10;5.60;;;9.90;98.80;;;;;;5054195;28;20177;-65
2021/10/25 01:33:50;;;;;;;6.60;6.00;;;9.90;98.90;;;;;;5055122;28;20224;-65
2021/10/25 01:36:16;;;;;;;6.83;6.23;;;9.90;98.90;;;;;;5054342;28;20406;-65
2021/10/25 01:38:42;;;;;;;7.20;6.57;;;9.80;99.10;;;;;;5055091;28;20410;-65
2021/10/25 01:41:08;;;;;;;6.10;5.70;;;9.90;99.40;;;;;;5054221;28;20972;-66
2021/10/25 01:43:36;;;;;;;6.57;5.97;;;9.90;99.60;;;;;;5054896;28;20524;-65
2021/10/25 01:46:02;;;;;;;6.77;6.17;;;9.90;99.80;;;;;;5054951;28;20415;-65
2021/10/25 01:48:28;;;;;;;7.50;6.80;;;9.80;99.70;;;;;;5054111;28;20440;-65
2021/10/25 01:50:54;;;;;;;6.43;5.83;;;9.90;99.90;;;;;;5054874;28;20415;-65
2021/10/25 01:53:20;;;;;;;6.60;6.00;;;9.90;99.80;;;;;;5053624;28;20207;-65
2021/10/25 01:55:50;;;;;;;6.80;6.10;;;9.90;99.90;;;;;;5054775;28;20418;-65
2021/10/25 01:58:16;;;;;;;5.87;5.47;;;9.90;99.90;;;;;;5053969;28;20169;-65
2021/10/25 02:00:42;;;;;;;6.77;6.10;;;9.90;99.80;;;;;;5054680;28;20486;-65
2021/10/25 02:03:08;;;;;;;6.70;6.20;;;9.90;99.30;;;;;;5053979;28;20215;-70
2021/10/25 02:05:34;;;;;;;6.43;5.97;;;9.90;99.60;;;;;;5053144;28;20269;-65
2021/10/25 02:08:00;;;;;;;6.67;6.07;;;9.80;99.70;;;;;;5054568;28;20418;-65
2021/10/25 02:10:25;;;;;;;6.47;6.07;;;9.80;99.90;;;;;;5053724;28;20406;-65
2021/10/25 02:12:52;;;;;;;6.27;5.83;;;9.80;99.70;;;;;;5054397;28;20204;-65
2021/10/25 02:15:17;;;;;;;5.90;5.50;;;9.80;99.60;;;;;;5053483;28;20191;-65
2021/10/25 02:17:44;;;;;;;6.60;6.10;;;9.80;99.10;;;;;;5054351;28;20405;-65
2021/10/25 02:20:11;;;;;;;6.03;5.53;;;9.70;99.30;;;;;;5053421;28;20179;-66
2021/10/25 02:22:37;;;;;;;6.90;6.40;;;9.70;99.10;;;;;;5053296;28;20405;-65
2021/10/25 02:25:03;;;;;;;7.10;6.40;;;9.70;99.30;;;;;;5054251;28;20413;-65
2021/10/25 02:27:29;;;;;;;8.00;7.23;;;9.70;99.50;;;;;;5051961;28;20425;-66
2021/10/25 02:29:55;;;;;;;6.60;6.00;;;9.70;99.70;;;;;;5053922;28;20413;-65
2021/10/25 02:32:21;;;;;;;7.07;6.43;;;9.70;99.60;;;;;;5053238;28;20171;-65
2021/10/25 02:34:47;;;;;;;7.50;6.20;;;9.70;99.90;;;;;;5054250;28;20185;-65
2021/10/25 02:37:14;;;;;;;6.33;5.73;;;9.60;99.80;;;;;;5053209;28;20184;-65
2021/10/25 02:39:41;;;;;;;7.17;6.50;;;9.60;99.80;;;;;;5053567;28;20413;-65
2021/10/25 02:42:07;;;;;;;6.70;6.20;;;9.60;99.90;;;;;;5053883;28;20414;-70
2021/10/25 02:44:32;;;;;;;7.27;6.30;;;9.60;99.90;;;;;;5053256;28;20456;-65
2021/10/25 02:46:58;;;;;;;7.07;6.47;;;9.60;99.90;;;;;;5053453;28;20749;-65
2021/10/25 02:49:24;;;;;;;6.97;6.43;;;9.50;99.80;;;;;;5052983;28;20228;-65
2021/10/25 02:51:50;;;;;;;8.70;5.90;;;9.50;99.80;;;;;;5053311;28;20186;-64
2021/10/25 02:54:16;;;;;;;7.73;7.13;;;9.50;99.90;;;;;;5051640;28;20453;-65
2021/10/25 02:56:42;;;;;;;6.70;6.10;;;9.50;99.90;;;;;;5052946;28;20425;-65
2021/10/25 02:59:10;;;;;;;6.57;6.07;;;9.50;99.90;;;;;;5052965;28;20252;-70
2021/10/25 03:01:38;;;;;;;7.17;6.47;;;9.40;99.90;;;;;;5052839;28;20409;-66
2021/10/25 03:04:05;;;;;;;6.30;5.70;;;9.40;99.60;;;;;;5053237;28;20562;-65
2021/10/25 03:06:31;;;;;;;8.83;6.30;;;9.40;99.60;;;;;;5052134;28;20439;-65
2021/10/25 03:08:58;;;;;;;6.40;5.90;;;9.40;99.70;;;;;;5053199;28;20990;-64
2021/10/25 03:11:24;;;;;;;6.93;6.37;;;9.40;99.70;;;;;;5051797;28;20416;-64
2021/10/25 03:13:50;;;;;;;6.53;6.03;;;9.30;99.60;;;;;;5052626;28;20511;-65
2021/10/25 03:16:15;;;;;;;8.03;6.60;;;9.30;99.90;;;;;;5051759;28;20844;-65
2021/10/25 03:18:41;;;;;;;6.87;5.83;;;9.30;99.90;;;;;;5053138;28;20413;-64
2021/10/25 03:21:07;;;;;;;6.23;5.73;;;9.30;99.90;;;;;;5053182;28;20176;-65
2021/10/25 03:23:34;;;;;;;6.33;5.80;;;9.30;99.90;;;;;;5052099;28;20179;-64
2021/10/25 03:26:01;;;;;;;7.93;5.93;;;9.20;99.50;;;;;;5053039;28;20483;-64
2021/10/25 03:28:27;;;;;;;8.00;7.00;;;9.20;99.60;;;;;;5051608;28;20478;-65
2021/10/25 03:30:54;;;;;;;7.07;6.33;;;9.10;99.70;;;;;;5052972;28;20408;-64
2021/10/25 03:33:20;;;;;;;7.83;6.87;;;9.20;99.90;;;;;;5052034;28;20448;-65
2021/10/25 03:35:46;;;;;;;7.30;6.63;;;9.10;99.90;;;;;;5052899;28;20404;-64
2021/10/25 03:38:14;;;;;;;8.43;6.67;;;9.20;99.90;;;;;;5051235;28;20430;-70
2021/10/25 03:40:43;;;;;;;7.57;6.97;;;9.20;99.90;;;;;;5032905;28;20266;-64
2021/10/25 03:43:09;;;;;;;7.50;6.90;;;9.20;99.90;;;;;;5032732;28;20413;-64
2021/10/25 03:48:21;;;;;;;7.80;7.00;;;9.10;99.60;;;;;;5032610;28;20504;-65
2021/10/25 03:50:49;;;;;;;7.47;6.90;;;9.10;99.90;;;;;;5036904;28;20430;-65
2021/10/25 03:53:37;;;;;;;7.17;6.57;;;9.10;99.70;;;;;;5051839;28;20443;-70
2021/10/25 03:56:28;;;;;;;6.90;6.30;;;9.00;99.90;;;;;;5052625;28;20411;-65
2021/10/25 04:28:19;;;;;;;9.47;8.57;;;9.10;99.90;;;;;;5051545;28;20424;-65
2021/10/25 04:30:52;;;;;;;8.80;8.00;;;9.10;99.90;;;;;;5052413;28;20413;-64
2021/10/25 04:33:18;;;;;;;8.93;7.50;;;9.10;99.90;;;;;;5051844;28;20447;-65
2021/10/25 04:35:44;;;;;;;10.10;8.10;;;9.10;99.90;;;;;;5052168;28;20515;-65
2021/10/25 04:38:10;;;;;;;8.50;7.10;;;9.10;99.90;;;;;;5052135;28;20170;-65
2021/10/25 04:40:35;;;;;;;8.73;7.93;;;9.00;99.90;;;;;;5051791;28;20169;-65
2021/10/25 04:43:01;;;;;;;9.27;8.03;;;9.00;99.90;;;;;;5052573;28;20182;-65
2021/10/25 04:45:27;;;;;;;8.17;7.40;;;9.10;99.90;;;;;;5051257;28;20460;-65
2021/10/25 04:47:54;;;;;;;8.03;7.27;;;9.00;99.90;;;;;;5052209;28;20186;-65
2021/10/25 04:50:21;;;;;;;6.93;6.33;;;9.10;99.90;;;;;;5051670;28;20182;-65
2021/10/25 04:52:47;;;;;;;7.43;6.70;;;9.10;99.90;;;;;;5052064;28;20982;-65
2021/10/25 04:55:14;;;;;;;7.03;6.43;;;9.00;99.90;;;;;;5052290;28;20409;-65
2021/10/25 04:57:40;;;;;;;7.27;6.57;;;9.00;99.90;;;;;;5052287;28;20435;-65
2021/10/25 05:00:07;;;;;;;7.63;7.00;;;9.10;99.90;;;;;;5052198;28;20409;-65
2021/10/25 05:02:33;;;;;;;6.90;6.23;;;9.10;99.90;;;;;;5051592;28;20182;-65
2021/10/25 05:04:59;;;;;;;7.30;6.53;;;9.10;99.90;;;;;;5051902;28;20447;-64
2021/10/25 05:07:24;;;;;;;6.20;5.60;;;9.00;99.90;;;;;;5051527;28;20412;-65
2021/10/25 05:09:50;;;;;;;15.03;7.40;;;9.00;99.90;;;;;;5051647;28;20774;-64
2021/10/25 05:12:16;;;;;;;7.47;6.80;;;9.00;99.90;;;;;;5051451;28;20174;-68
2021/10/25 05:14:43;;;;;;;8.37;7.67;;;9.00;99.90;;;;;;5051860;28;20273;-65
2021/10/25 05:17:09;;;;;;;7.90;7.20;;;8.90;99.90;;;;;;5051514;28;20645;-65
2021/10/25 05:19:35;;;;;;;6.80;6.10;;;8.80;99.90;;;;;;5051391;28;20444;-64
2021/10/25 05:22:01;;;;;;;7.53;6.90;;;8.80;99.90;;;;;;5055588;28;20585;-64
2021/10/25 05:24:27;;;;;;;7.70;6.67;;;8.80;99.90;;;;;;5055435;28;20771;-65
2021/10/25 05:26:53;;;;;;;7.47;6.60;;;8.90;99.90;;;;;;5055381;28;20415;-65
2021/10/25 05:29:18;;;;;;;8.40;7.50;;;8.80;99.90;;;;;;5051086;28;20618;-65
2021/10/25 05:31:45;;;;;;;8.80;7.87;;;8.80;99.90;;;;;;5055289;28;20634;-65
2021/10/25 05:34:11;;;;;;;10.10;7.50;;;8.70;99.90;;;;;;5055388;28;20201;-64
2021/10/25 05:36:37;;;;;;;8.53;7.70;;;8.80;99.90;;;;;;5054919;28;20806;-65
2021/10/25 05:39:08;;;;;;;7.50;6.80;;;8.80;99.90;;;;;;5055015;28;20472;-65
2021/10/25 05:41:36;;;;;;;8.40;6.30;;;8.80;99.90;;;;;;5054192;28;20393;-64
2021/10/25 05:44:03;;;;;;;8.33;7.30;;;8.80;99.90;;;;;;5054669;28;20467;-65
2021/10/25 05:46:29;;;;;;;8.87;7.90;;;8.80;99.90;;;;;;5054079;28;20436;-66
2021/10/25 05:48:57;;;;;;;9.00;8.10;;;8.80;99.90;;;;;;5054664;28;20511;-66
2021/10/25 05:51:23;;;;;;;10.20;7.30;;;8.80;99.90;;;;;;5054540;28;20482;-66
2021/10/25 05:53:49;;;;;;;7.90;6.80;;;8.80;99.90;;;;;;5054675;28;20453;-66
2021/10/25 05:56:14;;;;;;;9.00;7.37;;;8.90;99.90;;;;;;5054475;28;20436;-68
2021/10/25 05:58:40;;;;;;;8.57;7.50;;;8.90;99.90;;;;;;5053236;28;20235;-67
2021/10/25 06:01:12;;;;;;;8.13;7.33;;;8.90;99.90;;;;;;5053470;28;20174;-67
2021/10/25 06:03:43;;;;;;;6.77;6.17;;;8.90;99.90;;;;;;5053917;28;20751;-67
2021/10/25 06:06:10;;;;;;;7.63;6.83;;;8.90;99.90;;;;;;5054448;28;20397;-67
2021/10/25 06:08:39;;;;;;;9.93;7.73;;;8.90;99.90;;;;;;5053201;28;20431;-67
2021/10/25 06:11:04;;;;;;;10.57;6.87;;;8.90;99.90;;;;;;5053291;28;20404;-67
2021/10/25 06:13:48;;;;;;;8.70;6.67;;;8.90;99.90;;;;;;5053478;28;20495;-67
2021/10/25 06:16:16;;;;;;;10.17;7.40;;;8.90;99.90;;;;;;5053139;28;20312;-67
2021/10/25 06:18:42;;;;;;;7.03;6.40;;;8.90;99.90;;;;;;5052822;28;20437;-67
2021/10/25 06:21:09;;;;;;;8.83;7.20;;;9.00;99.90;;;;;;5054654;28;20871;-67
2021/10/25 06:23:35;;;;;;;8.30;7.30;;;9.00;99.90;;;;;;5053697;28;20904;-67
2021/10/25 06:26:03;;;;;;;7.83;7.07;;;9.00;99.90;;;;;;5054190;28;20477;-67
2021/10/25 06:28:29;;;;;;;8.60;7.50;;;9.00;99.90;;;;;;5053854;28;20507;-67
2021/10/25 06:31:02;;;;;;;8.73;6.93;;;8.90;99.90;;;;;;5054460;28;20550;-67
2021/10/25 06:33:28;;;;;;;8.17;7.40;;;8.90;99.90;;;;;;5052719;28;20493;-67
2021/10/25 06:36:04;;;;;;;8.03;7.23;;;8.90;99.90;;;;;;5054413;28;20416;-67
2021/10/25 06:38:33;;;;;;;7.27;6.57;;;8.90;99.90;;;;;;5046142;28;20546;-67
2021/10/25 06:41:00;;;;;;;8.00;7.30;;;8.90;99.90;;;;;;5053723;28;20515;-66
2021/10/25 06:43:26;;;;;;;7.27;6.50;;;9.00;99.90;;;;;;5053005;28;21058;-69
2021/10/25 06:45:54;;;;;;;7.00;6.40;;;9.00;99.90;;;;;;5054098;28;20814;-68
2021/10/25 06:48:20;;;;;;;7.33;6.63;;;9.00;99.90;;;;;;5053351;28;20439;-68
2021/10/25 06:50:45;;;;;;;7.30;6.60;;;9.00;99.90;;;;;;5053558;28;20417;-68
2021/10/25 06:53:13;;;;;;;9.03;7.93;;;9.00;99.90;;;;;;5053627;28;20455;-69
2021/10/25 06:55:40;;;;;;;6.83;6.13;;;8.90;99.90;;;;;;5052486;28;20186;-69
2021/10/25 06:58:07;;;;;;;8.40;6.57;;;8.90;99.90;;;;;;5053857;28;20420;-68
2021/10/25 07:00:33;;;;;;;6.83;6.20;;;8.90;99.90;;;;;;5053618;28;20826;-69
2021/10/25 07:02:59;;;;;;;10.00;6.73;;;8.90;99.90;;;;;;5053801;28;20448;-68
2021/10/25 07:05:26;;;;;;;8.13;7.33;;;8.90;99.90;;;;;;5053359;28;20428;-69
2021/10/25 07:07:53;;;;;;;7.10;6.40;;;8.90;99.90;;;;;;5052965;28;20417;-68
2021/10/25 07:10:19;;;;;;;8.10;6.80;;;8.90;99.90;;;;;;5053035;28;20497;-69
2021/10/25 07:12:45;;;;;;;7.37;6.70;;;8.90;99.90;;;;;;5052912;28;20416;-68
2021/10/25 07:15:11;;;;;;;7.70;7.00;;;9.00;99.90;;;;;;5054054;28;20253;-68
2021/10/25 07:20:51;;;;;;;9.57;7.20;;;9.00;99.90;;;;;;5053720;28;20414;-68
2021/10/25 08:02:07;;;;;;;15.57;10.13;;;12.60;97.00;;;;;;5051788;28;20410;-72
2021/10/25 08:12:13;;;;;;;14.40;8.90;;;13.30;96.20;;;;;;5052815;28;20160;-72
2021/10/25 08:14:43;;;;;;;11.00;9.20;;;13.50;95.60;;;;;;5052071;28;20469;-72
2021/10/25 08:17:11;;;;;;;14.93;8.97;;;13.70;95.00;;;;;;5052760;28;20411;-72
2021/10/25 08:19:36;;;;;;;13.93;9.30;;;13.90;95.50;;;;;;5055783;28;20422;-72
2021/10/25 08:22:10;;;;;;;17.93;12.70;;;14.10;96.00;;;;;;5071504;28;20429;-72
2021/10/25 08:24:39;;;;;;;12.60;11.30;;;14.30;94.80;;;;;;5066226;28;20179;-72
2021/10/25 08:27:06;;;;;;;13.80;10.83;;;14.40;94.50;;;;;;5069649;28;20409;-72
2021/10/25 08:29:39;;;;;;;12.10;10.97;;;14.60;94.80;;;;;;5051691;28;20431;-72
2021/10/25 08:32:31;;;;;;;13.80;11.30;;;14.90;95.00;;;;;;5052143;28;20416;-69
2021/10/25 08:40:30;;;;;;;12.90;11.70;;;14.50;93.40;;;;;;5048905;28;20425;-69
2021/10/25 08:42:56;;;;;;;12.93;11.73;;;14.30;93.70;;;;;;5051600;28;20447;-69
2021/10/25 08:45:29;;;;;;;14.13;12.73;;;14.10;94.10;;;;;;5052148;28;20891;-69
2021/10/25 08:47:57;;;;;;;15.03;11.70;;;14.10;94.60;;;;;;5052509;28;20788;-68
2021/10/25 08:50:25;;;;;;;11.57;10.17;;;14.00;95.00;;;;;;5052746;28;20423;-69
2021/10/25 08:52:52;;;;;;;11.17;9.60;;;13.90;94.70;;;;;;5051379;28;20919;-69
2021/10/25 08:55:18;;;;;;;10.43;9.30;;;13.90;95.40;;;;;;5053080;28;20559;-69
2021/10/25 08:57:47;;;;;;;9.47;8.67;;;14.00;95.80;;;;;;5056007;28;20942;-69
2021/10/25 09:00:19;;;;;;;15.43;9.97;;;14.10;95.10;;;;;;5056446;28;20418;-69
2021/10/25 09:02:57;;;;;;;9.13;8.43;;;14.20;94.20;;;;;;5055093;28;20464;-69
2021/10/25 09:05:23;;;;;;;10.93;9.90;;;14.40;94.50;;;;;;5057440;28;20410;-69
2021/10/25 09:08:03;;;;;;;10.30;9.30;;;14.50;94.30;;;;;;5057317;28;20957;-69
2021/10/25 09:10:38;;;;;;;8.97;8.17;;;14.60;94.70;;;;;;5055528;28;20445;-90
2021/10/25 09:13:17;;;;;;;10.37;9.30;;;14.90;94.50;;;;;;5075822;28;20817;-69
2021/10/25 09:15:46;;;;;;;10.37;8.73;;;14.90;94.90;;;;;;5075673;28;20401;-69
2021/10/25 09:18:18;;;;;;;10.80;9.80;;;15.00;93.10;;;;;;5076072;28;20757;-69
2021/10/25 09:20:48;;;;;;;7.00;6.40;;;15.20;93.40;;;;;;5075614;28;20397;-69
2021/10/25 09:23:16;;;;;;;7.87;7.07;;;15.40;92.10;;;;;;5075647;28;20410;-69
2021/10/25 09:25:42;;;;;;;9.40;8.70;;;15.60;93.20;;;;;;5075169;28;20447;-69
2021/10/25 09:28:14;;;;;;;7.60;6.90;;;15.90;92.90;;;;;;5075883;28;20430;-69
2021/10/25 09:30:44;;;;;;;6.23;5.70;;;16.10;92.20;;;;;;5075235;28;20399;-69
2021/10/25 09:33:18;;;;;;;6.00;5.40;;;16.40;90.00;;;;;;5073570;28;20438;-70
2021/10/25 09:35:47;;;;;;;5.20;4.80;;;16.70;90.30;;;;;;5035104;28;20400;-69
2021/10/25 09:38:21;;;;;;;8.13;7.53;;;16.90;89.40;;;;;;5034667;28;20417;-69
2021/10/25 09:49:06;;;;;;;4.60;4.23;;;17.50;85.10;;;;;;5036829;28;20393;-69
2021/10/25 09:51:32;;;;;;;4.30;3.90;;;17.60;83.70;;;;;;5054988;28;20843;-83
2021/10/25 09:53:59;;;;;;;5.00;4.60;;;17.70;81.50;;;;;;5054080;28;20534;-69
2021/10/25 09:56:34;;;;;;;5.50;5.10;;;17.80;83.70;;;;;;5055107;28;20208;-69
2021/10/25 10:01:36;;;;;;;5.00;4.70;;;17.90;81.00;;;;;;5055436;28;20450;-69
2021/10/25 10:04:06;;;;;;;5.63;5.20;;;18.00;80.20;;;;;;5055777;28;20416;-68
2021/10/25 10:06:32;;;;;;;5.67;5.23;;;18.20;79.60;;;;;;5054274;28;20415;-68
2021/10/25 10:08:59;;;;;;;5.37;5.00;;;18.50;79.00;;;;;;5053589;28;20430;-68
2021/10/25 10:11:26;;;;;;;5.63;5.23;;;18.70;78.00;;;;;;5054155;28;20466;-69
2021/10/25 10:13:52;;;;;;;4.87;4.57;;;18.90;76.00;;;;;;5053469;28;20500;-68
2021/10/25 10:16:18;;;;;;;5.37;4.97;;;19.00;76.00;;;;;;5054819;28;20431;-68
2021/10/25 10:18:54;;;;;;;5.17;4.87;;;19.20;76.00;;;;;;5052852;28;20420;-69
2021/10/25 10:21:21;;;;;;;5.13;4.73;;;19.50;75.00;;;;;;5052466;28;20408;-69
2021/10/25 10:23:52;;;;;;;4.67;4.20;;;19.80;75.10;;;;;;5052978;28;20426;-69
2021/10/25 10:26:18;;;;;;;4.70;4.40;;;20.00;72.00;;;;;;5053145;28;20438;-69
2021/10/25 10:28:50;;;;;;;4.10;3.80;;;20.00;70.80;;;;;;5054126;28;20746;-69
2021/10/25 10:31:20;;;;;;;4.53;4.10;;;20.20;71.20;;;;;;5053670;28;20420;-69
2021/10/25 10:33:54;;;;;;;4.93;4.63;;;20.20;69.30;;;;;;5051635;28;20450;-70
2021/10/25 10:36:31;;;;;;;5.17;4.77;;;20.20;71.00;;;;;;5053780;28;20444;-69
2021/10/25 10:39:07;;;;;;;4.67;4.37;;;20.20;71.00;;;;;;5053322;28;20444;-70
2021/10/25 10:41:40;;;;;;;4.77;4.20;;;20.20;70.30;;;;;;5035649;28;20427;-69
2021/10/25 10:44:11;;;;;;;5.20;4.90;;;20.10;69.40;;;;;;5053747;28;20554;-70
2021/10/25 10:46:54;;;;;;;5.03;4.73;;;20.20;70.50;;;;;;5052769;28;20412;-71
2021/10/25 10:49:31;;;;;;;4.63;4.40;;;20.30;71.60;;;;;;5051367;28;20420;-72
2021/10/25 10:55:34;;;;;;;8.10;3.60;;;20.60;70.60;;;;;;5052759;28;20534;-70
2021/10/25 11:00:23;;;;;;;4.77;4.37;;;20.20;69.60;;;;;;5053404;28;20423;-70
2021/10/25 11:03:15;;;;;;;4.67;4.30;;;20.10;69.60;;;;;;5052281;28;20412;-71
2021/10/25 11:05:44;;;;;;;4.50;4.20;;;19.90;70.90;;;;;;5044434;28;20423;-70
2021/10/25 11:08:21;;;;;;;4.27;3.97;;;19.70;71.20;;;;;;5053795;28;20415;-70
2021/10/25 11:10:56;;;;;;;4.40;4.00;;;19.60;73.20;;;;;;5051190;28;20392;-70
2021/10/25 11:13:23;;;;;;;4.87;4.57;;;19.30;73.90;;;;;;5052747;28;20836;-70
2021/10/25 11:16:11;;;;;;;4.70;4.40;;;19.40;75.10;;;;;;5052646;28;20435;-70
2021/10/25 11:18:42;;;;;;;4.50;4.17;;;19.30;74.60;;;;;;5052992;28;20776;-78
2021/10/25 11:21:16;;;;;;;5.57;5.00;;;19.50;75.20;;;;;;5052496;28;20461;-70
2021/10/25 11:24:02;;;;;;;4.43;4.23;;;19.60;74.90;;;;;;5052986;28;20412;-70
2021/10/25 11:26:49;;;;;;;5.30;4.83;;;19.80;75.90;;;;;;5053312;28;20790;-71
2021/10/25 11:29:26;;;;;;;3.60;3.33;;;19.80;74.90;;;;;;5039051;28;20820;-70
2021/10/25 11:32:00;;;;;;;3.80;3.60;;;19.90;74.80;;;;;;5052173;28;20423;-71
2021/10/25 11:34:30;;;;;;;4.40;4.00;;;20.10;75.70;;;;;;5052928;28;20523;-72
2021/10/25 11:37:02;;;;;;;5.83;4.67;;;20.20;74.60;;;;;;5052778;28;20519;-72
2021/10/25 11:39:41;;;;;;;4.17;3.87;;;20.30;73.50;;;;;;5052970;28;20493;-70
2021/10/25 11:42:10;;;;;;;4.73;4.33;;;20.30;73.10;;;;;;5052385;28;20423;-71
2021/10/25 11:44:36;;;;;;;4.23;4.00;;;20.20;74.60;;;;;;5052742;28;20543;-70
2021/10/25 11:47:02;;;;;;;4.90;4.57;;;20.10;74.20;;;;;;5051164;28;20458;-69
2021/10/25 11:49:33;;;;;;;5.67;5.37;;;20.00;75.50;;;;;;5052775;28;20778;-70
2021/10/25 11:52:05;;;;;;;4.70;4.40;;;20.00;74.80;;;;;;5051416;28;20526;-71
2021/10/25 11:54:31;;;;;;;5.37;5.13;;;20.00;74.50;;;;;;5052957;28;20448;-70
2021/10/25 11:56:56;;;;;;;5.70;5.30;;;20.10;73.70;;;;;;5051134;28;20538;-71
2021/10/25 11:59:23;;;;;;;4.67;4.47;;;20.10;73.70;;;;;;5052440;28;20180;-71
2021/10/25 12:01:55;;;;;;;4.60;4.30;;;20.00;74.30;;;;;;5052252;28;20173;-72
2021/10/25 12:04:21;;;;;;;5.43;5.03;;;20.00;74.20;;;;;;5052671;28;20503;-69
2021/10/25 12:07:04;;;;;;;5.60;5.30;;;19.90;73.60;;;;;;5051502;28;20566;-69
2021/10/25 12:09:32;;;;;;;4.77;4.47;;;19.70;74.50;;;;;;5052774;28;20797;-69
2021/10/25 12:12:14;;;;;;;4.80;4.40;;;19.60;74.10;;;;;;5052016;28;20473;-69
2021/10/25 12:14:43;;;;;;;5.53;5.13;;;19.50;75.10;;;;;;5052813;28;20475;-83
2021/10/25 12:17:14;;;;;;;4.83;4.53;;;19.40;75.20;;;;;;5051141;28;20416;-69
2021/10/25 12:19:43;;;;;;;10.50;5.37;;;19.00;75.40;;;;;;5052655;28;20392;-68
2021/10/25 12:22:15;;;;;;;4.67;4.30;;;18.90;77.00;;;;;;5052592;28;20951;-69
2021/10/25 12:25:14;;;;;;;5.00;4.70;;;18.60;75.80;;;;;;5051783;28;20456;-76
2021/10/25 12:28:24;;;;;;;4.20;4.00;;;18.60;77.70;;;;;;5052061;28;20864;-69
2021/10/25 12:31:03;;;;;;;4.00;3.40;;;18.50;76.60;;;;;;5050876;28;20411;-69
2021/10/25 12:33:29;;;;;;;5.30;4.80;;;18.40;76.50;;;;;;5052218;28;20460;-69
2021/10/25 12:35:55;;;;;;;4.50;3.90;;;18.40;77.60;;;;;;5051765;28;20417;-69
2021/10/25 12:38:22;;;;;;;4.27;3.87;;;18.40;77.90;;;;;;5052368;28;20914;-69
2021/10/25 12:41:01;;;;;;;5.50;5.10;;;18.40;77.80;;;;;;5051871;28;20484;-69
2021/10/25 12:43:38;;;;;;;4.57;4.17;;;18.40;78.10;;;;;;5052303;28;20408;-69
2021/10/25 12:46:07;;;;;;;4.70;4.30;;;18.40;77.50;;;;;;5051928;28;20400;-69
2021/10/25 12:48:52;;;;;;;4.63;4.33;;;18.40;77.70;;;;;;5052213;28;20412;-69
2021/10/25 12:51:19;;;;;;;3.90;3.60;;;18.30;78.00;;;;;;5052865;28;20454;-69
2021/10/25 12:53:48;;;;;;;4.67;4.23;;;18.30;78.60;;;;;;5051910;28;20460;-69
2021/10/25 12:56:25;;;;;;;5.07;4.67;;;18.30;79.20;;;;;;5052302;28;20465;-69
2021/10/25 12:59:08;;;;;;;4.57;4.23;;;18.30;79.40;;;;;;5052064;28;20404;-68
2021/10/25 13:01:34;;;;;;;4.70;4.30;;;18.30;79.00;;;;;;5052459;28;20392;-68
2021/10/25 13:04:02;;;;;;;5.47;5.07;;;18.20;79.30;;;;;;5051500;28;20420;-69
2021/10/25 13:06:30;;;;;;;4.30;4.00;;;18.10;77.60;;;;;;5051872;28;20401;-69
2021/10/25 13:09:02;;;;;;;6.73;6.33;;;18.10;78.70;;;;;;5051541;28;20408;-69
2021/10/25 13:11:28;;;;;;;5.73;4.97;;;18.10;79.20;;;;;;5052201;28;20413;-68
2021/10/25 13:13:57;;;;;;;5.30;5.00;;;18.00;77.20;;;;;;5050263;28;20478;-69
2021/10/25 13:16:28;;;;;;;5.27;4.97;;;17.90;78.80;;;;;;5051794;28;20404;-69
2021/10/25 13:18:55;;;;;;;4.23;3.80;;;17.90;79.20;;;;;;5049792;28;20424;-69
2021/10/25 13:21:20;;;;;;;6.80;6.20;;;17.80;78.10;;;;;;5051370;28;20413;-71
2021/10/25 13:23:46;;;;;;;5.20;4.80;;;17.80;79.10;;;;;;5051004;28;20923;-76
2021/10/25 13:26:12;;;;;;;5.47;5.13;;;17.50;79.50;;;;;;5051345;28;20235;-70
2021/10/25 13:28:39;;;;;;;5.30;4.50;;;17.40;81.00;;;;;;5051179;28;20188;-71
2021/10/25 13:31:05;;;;;;;5.30;4.90;;;17.40;81.90;;;;;;5050845;28;20204;-71
2021/10/25 13:33:34;;;;;;;4.13;3.83;;;17.50;83.30;;;;;;5051508;28;20452;-70
2021/10/25 13:36:01;;;;;;;4.53;4.13;;;17.40;82.40;;;;;;5050101;28;20169;-70
2021/10/25 13:38:27;;;;;;;4.50;4.20;;;17.40;82.60;;;;;;5051163;28;20408;-71
2021/10/25 13:40:52;;;;;;;4.60;4.20;;;17.40;81.80;;;;;;5050379;28;20831;-72
2021/10/25 13:43:18;;;;;;;5.27;4.90;;;17.40;83.90;;;;;;5054836;28;20783;-71
2021/10/25 13:45:45;;;;;;;4.40;4.10;;;17.40;81.80;;;;;;5054986;28;20225;-71
2021/10/25 13:48:11;;;;;;;6.60;6.10;;;17.50;84.10;;;;;;5054701;28;20429;-71
2021/10/25 13:50:37;;;;;;;8.50;3.70;;;17.60;85.60;;;;;;5055304;28;20411;-71
2021/10/25 13:53:03;;;;;;;6.43;6.13;;;17.50;81.80;;;;;;5054377;28;20404;-71
2021/10/25 13:55:29;;;;;;;6.00;5.60;;;17.60;84.00;;;;;;5055000;28;20800;-71
2021/10/25 13:57:55;;;;;;;4.47;4.07;;;17.60;86.70;;;;;;5054353;28;20621;-72
2021/10/25 14:00:20;;;;;;;6.30;5.90;;;17.70;89.10;;;;;;5055019;28;20178;-71
2021/10/25 14:02:48;;;;;;;5.00;4.70;;;17.70;85.70;;;;;;5054615;28;20404;-71
2021/10/25 14:05:18;;;;;;;4.67;4.37;;;17.80;85.30;;;;;;5054183;28;20178;-71
2021/10/25 14:07:45;;;;;;;5.97;5.57;;;17.80;85.80;;;;;;5054686;28;20415;-71
2021/10/25 14:10:24;;;;;;;5.27;4.80;;;17.70;82.70;;;;;;5053909;28;20404;-71
2021/10/25 14:12:51;;;;;;;5.17;4.77;;;17.70;84.90;;;;;;5054579;28;20404;-71
2021/10/25 14:17:51;;;;;;;5.00;4.70;;;17.60;83.90;;;;;;5054363;28;20404;-71
2021/10/25 14:20:19;;;;;;;4.60;4.30;;;17.50;84.70;;;;;;5053903;28;20412;-70
2021/10/25 14:22:45;;;;;;;4.77;4.20;;;17.40;85.10;;;;;;5054640;28;20792;-71
2021/10/25 14:25:11;;;;;;;4.83;4.43;;;17.40;86.90;;;;;;5053664;28;20412;-71
2021/10/25 14:27:38;;;;;;;4.50;4.20;;;17.40;87.40;;;;;;5054435;28;20412;-71
2021/10/25 14:30:05;;;;;;;5.20;4.80;;;17.40;85.30;;;;;;5053732;28;20462;-71
2021/10/25 14:32:31;;;;;;;5.83;5.23;;;17.40;85.30;;;;;;5053905;28;20465;-73
2021/10/25 14:34:58;;;;;;;5.10;4.30;;;17.30;87.00;;;;;;5053808;28;20486;-75
2021/10/25 14:37:32;;;;;;;5.47;5.03;;;17.20;85.60;;;;;;5053750;28;20526;-71
2021/10/25 14:40:04;;;;;;;5.70;5.30;;;17.10;85.60;;;;;;5053746;28;20404;-77
2021/10/25 14:42:32;;;;;;;7.37;6.87;;;17.10;87.40;;;;;;5054021;28;20839;-69
2021/10/25 14:55:55;;;;;;;7.90;7.40;;;17.10;86.90;;;;;;5053923;28;20389;-69